createdAt,value
2018-11-10T00:01:18.065Z,8.61
2018-11-10T00:07:13.047Z,6.42
2018-11-10T00:13:08.093Z,6.52
2018-11-10T00:19:03.065Z,7.29
2018-11-10T00:24:58.065Z,7.2
2018-11-10T00:30:53.142Z,7.51
2018-11-10T00:36:48.100Z,6.95
2018-11-10T00:42:43.075Z,6.03
2018-11-10T00:48:38.085Z,4.33
2018-11-10T00:54:33.103Z,3.16
2018-11-10T01:00:28.104Z,4.46
2018-11-10T01:06:23.091Z,4.83
2018-11-10T01:12:18.100Z,4.76
2018-11-10T01:18:13.086Z,5.59
2018-11-10T01:24:08.149Z,4.78
2018-11-10T01:30:07.191Z,4.05
2018-11-10T01:35:58.124Z,3.75
2018-11-10T01:41:53.106Z,3.39
2018-11-10T01:47:48.105Z,3.43
2018-11-10T01:53:43.131Z,2.75
2018-11-10T01:59:38.134Z,3.15
2018-11-10T02:05:33.110Z,2.89
2018-11-10T02:11:28.122Z,3.08
2018-11-10T02:17:23.143Z,2.71
2018-11-10T02:23:18.152Z,3.61
2018-11-10T02:29:13.175Z,5.33
2018-11-10T02:35:08.196Z,4.7
2018-11-10T02:41:03.169Z,7.28
2018-11-10T02:46:58.182Z,7.65
2018-11-10T02:52:53.215Z,7.8
2018-11-10T02:58:48.193Z,6.82
2018-11-10T03:04:43.149Z,6.02
2018-11-10T03:10:38.220Z,5.46
2018-11-10T03:16:33.198Z,4.49
2018-11-10T03:22:28.187Z,4.22
2018-11-10T03:28:23.210Z,3.71
2018-11-10T03:34:18.162Z,3.22
2018-11-10T03:40:13.193Z,2.51
2018-11-10T03:46:08.172Z,2.79
2018-11-10T03:52:03.225Z,2.41
2018-11-10T03:57:58.207Z,2.57
2018-11-10T04:03:53.239Z,2.38
2018-11-10T04:09:48.205Z,2.34
2018-11-10T04:15:43.186Z,2.43
2018-11-10T04:21:38.221Z,3.13
2018-11-10T04:27:33.213Z,2.97
2018-11-10T04:33:28.187Z,4.03
2018-11-10T04:39:23.241Z,4.52
2018-11-10T04:45:18.221Z,3.86
2018-11-10T04:51:13.208Z,3.72
2018-11-10T04:57:08.215Z,4.06
2018-11-10T05:03:03.225Z,3.89
2018-11-10T05:08:58.229Z,4.04
2018-11-10T05:14:53.302Z,3.64
2018-11-10T05:20:48.231Z,3.56
2018-11-10T05:26:43.243Z,3.22
2018-11-10T05:32:38.278Z,3.55
2018-11-10T05:38:33.234Z,3.68
2018-11-10T05:44:28.249Z,3.18
2018-11-10T05:50:23.304Z,2.76
2018-11-10T05:56:18.266Z,3.47
2018-11-10T06:02:13.278Z,3.88
2018-11-10T06:08:08.309Z,4.04
2018-11-10T06:14:03.269Z,4.1
2018-11-10T06:19:58.275Z,5.09
2018-11-10T06:25:53.297Z,6.67
2018-11-10T06:31:48.256Z,5.9
2018-11-10T06:37:43.270Z,5.58
2018-11-10T06:43:38.275Z,4.8
2018-11-10T06:49:33.284Z,6.3
2018-11-10T06:55:28.280Z,6.66
2018-11-10T07:01:23.286Z,6.85
2018-11-10T07:07:18.276Z,7.34
2018-11-10T07:13:13.349Z,8.47
2018-11-10T07:19:08.322Z,7.46
2018-11-10T07:25:03.347Z,8.25
2018-11-10T07:30:58.312Z,8.58
2018-11-10T07:36:53.300Z,8.61
2018-11-10T07:42:48.319Z,8.72
2018-11-10T07:48:43.297Z,9.61
2018-11-10T07:54:38.299Z,18.76
2018-11-10T08:00:33.324Z,15.9
2018-11-10T08:06:28.340Z,35.24
2018-11-10T08:12:23.308Z,17.23
2018-11-10T08:18:18.356Z,13.43
2018-11-10T08:24:13.314Z,11.58
2018-11-10T08:30:08.341Z,11.59
2018-11-10T08:36:03.318Z,9.21
2018-11-10T08:41:58.348Z,10.63
2018-11-10T08:47:53.333Z,7.97
2018-11-10T08:53:48.402Z,11.62
2018-11-10T08:59:43.383Z,10.68
2018-11-10T09:05:38.385Z,9.88
2018-11-10T09:11:33.347Z,10.08
2018-11-10T09:17:28.407Z,10.79
2018-11-10T09:23:23.395Z,10.72
2018-11-10T09:29:18.346Z,9.53
2018-11-10T09:35:13.378Z,10.15
2018-11-10T09:41:08.377Z,9.66
2018-11-10T09:47:03.367Z,7.98
2018-11-10T09:52:58.378Z,13.27
2018-11-10T09:58:53.402Z,13.45
2018-11-10T10:04:48.368Z,13.97
2018-11-10T10:10:43.377Z,13.19
2018-11-10T10:16:38.540Z,12.81
2018-11-10T10:22:33.411Z,12.87
2018-11-10T10:28:28.513Z,10.03
2018-11-10T10:34:23.564Z,9.13
2018-11-10T10:40:18.403Z,7.41
2018-11-10T10:46:13.403Z,8.36
2018-11-10T10:52:08.403Z,6.05
2018-11-10T10:58:03.397Z,6.27
2018-11-10T11:03:58.438Z,8.79
2018-11-10T11:09:53.413Z,10.21
2018-11-10T11:15:48.462Z,8.13
2018-11-10T11:21:43.484Z,9.76
2018-11-10T11:27:38.431Z,12.13
2018-11-10T11:33:33.495Z,7.62
2018-11-10T11:39:28.450Z,7.23
2018-11-10T11:45:23.481Z,6.17
2018-11-10T11:51:18.454Z,5.23
2018-11-10T11:57:13.453Z,6.29
2018-11-10T12:03:08.456Z,7.73
2018-11-10T12:09:03.444Z,20.11
2018-11-10T12:14:58.459Z,5.82
2018-11-10T12:20:53.549Z,5.83
2018-11-10T12:26:48.544Z,4.1
2018-11-10T12:32:43.493Z,4.56
2018-11-10T12:38:38.508Z,5.52
2018-11-10T12:44:33.499Z,3.75
2018-11-10T12:50:28.513Z,3.75
2018-11-10T12:56:23.486Z,3.76
2018-11-10T13:02:18.478Z,3.51
2018-11-10T13:08:13.519Z,3.39
2018-11-10T13:14:08.504Z,3.07
2018-11-10T13:20:03.496Z,3.03
2018-11-10T13:25:58.508Z,2.89
2018-11-10T13:31:53.544Z,2.55
2018-11-10T13:37:48.548Z,3
2018-11-10T13:43:43.613Z,2.73
2018-11-10T13:49:38.503Z,2.91
2018-11-10T13:55:33.511Z,3.25
2018-11-10T14:01:28.494Z,2.96
2018-11-10T14:07:23.511Z,2.93
2018-11-10T14:13:18.526Z,3.47
2018-11-10T14:19:13.540Z,2.97
2018-11-10T14:25:08.550Z,3.44
2018-11-10T14:31:03.525Z,3.5
2018-11-10T14:36:58.533Z,3.12
2018-11-10T14:42:53.567Z,3.21
2018-11-10T14:48:48.537Z,3.04
2018-11-10T14:54:43.551Z,2.78
2018-11-10T15:00:38.573Z,4.09
2018-11-10T15:06:33.573Z,3.02
2018-11-10T15:12:28.546Z,3.24
2018-11-10T15:18:23.668Z,10.57
2018-11-10T15:24:18.564Z,2.94
2018-11-10T15:30:13.577Z,3.23
2018-11-10T15:36:08.563Z,3.69
2018-11-10T15:42:03.600Z,4.98
2018-11-10T15:47:58.583Z,5.48
2018-11-10T15:53:53.674Z,4.83
2018-11-10T15:59:48.602Z,3.76
2018-11-10T16:05:43.574Z,3.87
2018-11-10T16:11:38.578Z,5.03
2018-11-10T16:17:33.619Z,5.83
2018-11-10T16:23:28.604Z,4.71
2018-11-10T16:29:23.590Z,3.93
2018-11-10T16:35:18.603Z,5.77
2018-11-10T16:41:13.610Z,5.56
2018-11-10T16:47:08.604Z,7.83
2018-11-10T16:53:03.686Z,6.18
2018-11-10T16:58:58.619Z,18.51
2018-11-10T17:04:53.648Z,10.41
2018-11-10T17:10:48.621Z,5.7
2018-11-10T17:16:43.616Z,4.51
2018-11-10T17:22:38.777Z,5.35
2018-11-10T17:28:33.643Z,8.2
2018-11-10T17:34:28.620Z,6.22
2018-11-10T17:40:23.823Z,9.05
2018-11-10T17:46:18.642Z,14.87
2018-11-10T17:52:13.713Z,14.07
2018-11-10T17:58:08.646Z,17.61
2018-11-10T18:04:03.682Z,17.77
2018-11-10T18:09:58.686Z,18.75
2018-11-10T18:15:53.707Z,8.41
2018-11-10T18:21:48.670Z,5.57
2018-11-10T18:27:43.709Z,9.74
2018-11-10T18:33:38.684Z,10.97
2018-11-10T18:39:33.755Z,13.19
2018-11-10T18:45:28.739Z,12.91
2018-11-10T18:51:23.686Z,19.59
2018-11-10T18:57:18.780Z,17.6
2018-11-10T19:03:13.674Z,43.62
2018-11-10T19:09:08.673Z,41.94
2018-11-10T19:15:03.689Z,25.4
2018-11-10T19:20:58.736Z,20.11
2018-11-10T19:26:53.688Z,9.35
2018-11-10T19:32:48.690Z,15.67
2018-11-10T19:38:43.703Z,19.25
2018-11-10T19:44:38.858Z,20.74
2018-11-10T19:50:33.829Z,21.1
2018-11-10T19:56:28.716Z,32.04
2018-11-10T20:02:23.705Z,27.77
2018-11-10T20:08:18.723Z,20.67
2018-11-10T20:14:13.728Z,21.26
2018-11-10T20:20:08.729Z,18.55
2018-11-10T20:26:03.719Z,17.45
2018-11-10T20:31:58.720Z,15.25
2018-11-10T20:37:53.742Z,8.33
2018-11-10T20:43:48.725Z,6.54
2018-11-10T20:49:43.754Z,10.06
2018-11-10T20:55:38.735Z,11.25
2018-11-10T21:01:33.731Z,6.87
2018-11-10T21:07:28.793Z,7.4
2018-11-10T21:13:23.767Z,7.8
2018-11-10T21:19:18.748Z,13.14
2018-11-10T21:25:13.762Z,16.01
2018-11-10T21:31:08.765Z,15.69
2018-11-10T21:37:03.826Z,15.16
2018-11-10T21:42:58.760Z,16.15
2018-11-10T21:48:53.797Z,15.27
2018-11-10T21:54:48.769Z,14.47
2018-11-10T22:00:43.764Z,15
2018-11-10T22:06:38.779Z,13.43
2018-11-10T22:12:33.789Z,13.46
2018-11-10T22:18:28.882Z,11.73
2018-11-10T22:24:23.795Z,10.23
2018-11-10T22:30:18.829Z,12.26
2018-11-10T22:36:13.800Z,12.27
2018-11-10T22:42:08.812Z,13.1
2018-11-10T22:48:03.976Z,17.46
2018-11-10T22:53:58.791Z,13.23
2018-11-10T22:59:53.817Z,12.82
2018-11-10T23:05:48.814Z,12.42
2018-11-10T23:11:43.810Z,18.97
2018-11-10T23:17:38.820Z,14.47
2018-11-10T23:23:33.949Z,24.82
2018-11-10T23:29:28.822Z,19.62
2018-11-10T23:35:23.825Z,16.13
2018-11-10T23:41:18.848Z,15.05
2018-11-10T23:47:13.832Z,15.5
2018-11-10T23:53:08.845Z,14.89
2018-11-10T23:59:03.858Z,14.15
